createdAt,value
2023-05-11T00:01:47.403Z,12.90
2023-05-11T00:04:15.861Z,12.83
2023-05-11T00:06:44.425Z,13.37
2023-05-11T00:09:14.154Z,13.60
2023-05-11T00:11:42.425Z,13.83
2023-05-11T00:14:10.766Z,13.53
2023-05-11T00:16:39.109Z,13.53
2023-05-11T00:19:07.531Z,14.60
2023-05-11T00:21:36.001Z,15.70
2023-05-11T00:24:04.464Z,15.57
2023-05-11T00:26:34.160Z,14.40
2023-05-11T00:29:02.696Z,14.97
2023-05-11T00:31:31.374Z,15.40
2023-05-11T00:33:59.783Z,15.27
2023-05-11T00:36:28.598Z,15.07
2023-05-11T00:38:56.991Z,16.00
2023-05-11T00:41:25.418Z,15.33
2023-05-11T00:43:55.202Z,14.83
2023-05-11T00:46:23.549Z,13.47
2023-05-11T00:48:51.972Z,13.93
2023-05-11T00:51:20.431Z,13.27
2023-05-11T00:53:48.851Z,12.07
2023-05-11T00:56:17.358Z,13.00
2023-05-11T00:58:45.920Z,12.37
2023-05-11T01:01:18.118Z,12.43
2023-05-11T01:03:46.861Z,13.23
2023-05-11T01:06:17.756Z,13.97
2023-05-11T01:08:47.575Z,14.40
2023-05-11T01:11:17.655Z,15.67
2023-05-11T01:13:47.616Z,16.03
2023-05-11T01:16:19.348Z,16.60
2023-05-11T01:18:48.766Z,16.80
2023-05-11T01:21:17.437Z,16.93
2023-05-11T01:23:47.110Z,16.63
2023-05-11T01:26:24.524Z,17.50
2023-05-11T01:29:07.769Z,17.17
2023-05-11T01:31:37.601Z,17.50
2023-05-11T01:34:07.090Z,17.20
2023-05-11T01:36:35.993Z,17.43
2023-05-11T01:39:05.290Z,17.57
2023-05-11T01:41:33.992Z,17.57
2023-05-11T01:44:03.178Z,17.03
2023-05-11T01:46:32.875Z,16.20
2023-05-11T01:49:03.098Z,16.50
2023-05-11T01:51:32.591Z,15.57
2023-05-11T01:54:01.008Z,16.00
2023-05-11T01:56:29.533Z,15.43
2023-05-11T01:58:57.953Z,15.73
2023-05-11T02:01:26.420Z,15.87
2023-05-11T02:03:54.864Z,15.43
2023-05-11T02:06:24.678Z,16.13
2023-05-11T02:08:53.112Z,15.83
2023-05-11T02:11:22.016Z,16.10
2023-05-11T02:13:50.422Z,15.70
2023-05-11T02:16:19.089Z,16.30
2023-05-11T02:18:47.673Z,14.67
2023-05-11T02:21:16.207Z,16.03
2023-05-11T02:23:46.925Z,15.47
2023-05-11T02:26:15.305Z,15.17
2023-05-11T02:28:43.942Z,16.43
2023-05-11T02:31:13.216Z,15.57
2023-05-11T02:33:42.021Z,16.10
2023-05-11T02:36:10.946Z,14.97
2023-05-11T02:38:39.540Z,14.67
2023-05-11T02:41:10.997Z,14.43
2023-05-11T02:43:40.713Z,14.43
2023-05-11T02:46:10.334Z,15.07
2023-05-11T02:48:40.129Z,14.97
2023-05-11T02:51:09.531Z,15.50
2023-05-11T02:53:37.935Z,17.43
2023-05-11T02:56:06.695Z,16.03
2023-05-11T02:58:36.521Z,16.17
2023-05-11T03:01:05.403Z,15.47
2023-05-11T03:03:34.092Z,15.90
2023-05-11T03:06:02.577Z,16.43
2023-05-11T03:08:30.952Z,16.13
2023-05-11T03:10:59.637Z,15.10
2023-05-11T03:13:28.147Z,16.33
2023-05-11T03:15:57.934Z,16.83
2023-05-11T03:18:26.287Z,17.63
2023-05-11T03:20:54.784Z,17.03
2023-05-11T03:23:23.129Z,17.97
2023-05-11T03:25:51.547Z,18.57
2023-05-11T03:28:19.884Z,17.90
2023-05-11T03:30:48.335Z,18.50
2023-05-11T03:33:18.152Z,18.57
2023-05-11T03:35:46.470Z,18.67
2023-05-11T03:38:14.876Z,18.57
2023-05-11T03:40:43.190Z,19.23
2023-05-11T03:43:12.875Z,18.00
2023-05-11T03:45:41.365Z,19.87
2023-05-11T03:48:09.897Z,19.37
2023-05-11T03:50:39.700Z,20.07
2023-05-11T03:53:08.131Z,19.10
2023-05-11T03:55:36.968Z,20.20
2023-05-11T03:58:07.532Z,20.43
2023-05-11T04:00:36.187Z,19.70
2023-05-11T04:03:18.210Z,19.47
2023-05-11T04:06:01.089Z,20.80
2023-05-11T04:08:36.427Z,19.77
2023-05-11T04:11:13.745Z,20.40
2023-05-11T04:13:45.919Z,21.53
2023-05-11T04:16:14.709Z,22.00
2023-05-11T04:18:43.090Z,19.83
2023-05-11T04:21:12.907Z,20.10
2023-05-11T04:23:41.296Z,20.57
2023-05-11T04:26:09.693Z,21.13
2023-05-11T04:28:38.260Z,20.27
2023-05-11T04:31:06.883Z,20.93
2023-05-11T04:33:35.336Z,19.67
2023-05-11T04:36:03.731Z,20.33
2023-05-11T04:38:33.576Z,21.67
2023-05-11T04:41:04.527Z,22.63
2023-05-11T04:43:32.928Z,22.70
2023-05-11T04:46:01.370Z,22.60
2023-05-11T04:48:29.794Z,21.77
2023-05-11T04:50:58.330Z,21.87
2023-05-11T04:53:26.833Z,22.87
2023-05-11T04:55:56.518Z,22.67
2023-05-11T04:58:24.845Z,22.67
2023-05-11T05:00:53.372Z,22.77
2023-05-11T05:03:21.864Z,22.67
2023-05-11T05:05:50.256Z,22.33
2023-05-11T05:08:18.803Z,22.33
2023-05-11T05:10:47.296Z,21.83
2023-05-11T05:13:17.700Z,22.57
2023-05-11T05:15:46.166Z,22.43
2023-05-11T05:18:14.576Z,21.87
2023-05-11T05:20:42.992Z,22.10
2023-05-11T05:23:11.343Z,20.50
2023-05-11T05:25:39.778Z,24.33
2023-05-11T05:28:08.308Z,21.47
2023-05-11T05:30:38.141Z,22.33
2023-05-11T05:33:06.570Z,23.40
2023-05-11T05:35:35.010Z,22.57
2023-05-11T05:38:03.368Z,22.43
2023-05-11T05:40:31.782Z,22.67
2023-05-11T05:43:00.155Z,22.80
2023-05-11T05:45:28.635Z,23.10
2023-05-11T05:48:00.526Z,21.70
2023-05-11T05:50:29.331Z,22.73
2023-05-11T05:52:57.847Z,23.17
2023-05-11T05:55:26.461Z,23.07
2023-05-11T05:57:54.900Z,23.63
2023-05-11T06:00:23.396Z,24.20
2023-05-11T06:02:51.836Z,23.70
2023-05-11T06:05:21.712Z,24.97
2023-05-11T06:08:01.672Z,24.17
2023-05-11T06:10:41.072Z,23.83
2023-05-11T06:13:09.608Z,24.10
2023-05-11T06:15:38.146Z,25.20
2023-05-11T06:18:07.356Z,23.57
2023-05-11T06:20:37.235Z,24.73
2023-05-11T06:23:05.732Z,24.97
2023-05-11T06:25:35.934Z,23.50
2023-05-11T06:28:04.302Z,24.50
2023-05-11T06:30:32.800Z,22.97
2023-05-11T06:33:01.385Z,24.97
2023-05-11T06:35:30.354Z,25.00
2023-05-11T06:38:00.312Z,23.90
2023-05-11T06:40:29.284Z,25.63
2023-05-11T06:42:57.734Z,25.50
2023-05-11T06:45:26.341Z,25.03
2023-05-11T06:47:54.961Z,25.20
2023-05-11T06:50:25.083Z,25.67
2023-05-11T06:52:55.705Z,25.63
2023-05-11T06:55:25.568Z,24.67
2023-05-11T06:57:55.043Z,24.00
2023-05-11T07:00:24.084Z,25.03
2023-05-11T07:02:52.831Z,26.40
2023-05-11T07:05:21.504Z,26.30
2023-05-11T07:07:49.924Z,27.20
2023-05-11T07:10:18.709Z,25.80
2023-05-11T07:12:48.754Z,26.90
2023-05-11T07:15:17.207Z,26.33
2023-05-11T07:17:47.735Z,25.70
2023-05-11T07:20:16.616Z,25.97
2023-05-11T07:22:45.094Z,25.13
2023-05-11T07:25:13.690Z,25.07
2023-05-11T07:27:42.110Z,24.93
2023-05-11T07:30:12.560Z,26.63
2023-05-11T07:32:41.052Z,25.57
2023-05-11T07:35:09.728Z,25.80
2023-05-11T07:37:38.140Z,23.83
2023-05-11T07:40:07.296Z,23.70
2023-05-11T07:42:35.658Z,23.20
2023-05-11T07:45:04.100Z,22.03
2023-05-11T07:47:36.752Z,21.53
2023-05-11T07:50:05.766Z,21.33
2023-05-11T07:52:34.197Z,19.07
2023-05-11T07:55:02.895Z,20.27
2023-05-11T07:57:31.362Z,18.30
2023-05-11T07:59:59.768Z,19.50
2023-05-11T08:02:28.320Z,18.53
2023-05-11T08:04:58.459Z,19.50
2023-05-11T08:07:27.099Z,18.13
2023-05-11T08:09:55.456Z,19.27
2023-05-11T08:12:23.903Z,18.67
2023-05-11T08:14:52.356Z,18.57
2023-05-11T08:17:20.827Z,19.23
2023-05-11T08:19:49.466Z,18.43
2023-05-11T08:22:19.746Z,18.37
2023-05-11T08:24:48.128Z,19.43
2023-05-11T08:27:16.528Z,19.30
2023-05-11T08:29:44.999Z,20.07
2023-05-11T08:32:13.493Z,20.37
2023-05-11T08:34:42.094Z,20.40
2023-05-11T08:37:10.575Z,20.57
2023-05-11T08:39:47.422Z,21.33
2023-05-11T08:42:16.765Z,19.47
2023-05-11T08:44:45.703Z,20.40
2023-05-11T08:49:45.409Z,18.70
2023-05-11T08:52:13.881Z,18.07
2023-05-11T08:54:43.633Z,18.10
2023-05-11T08:57:12.206Z,16.97
2023-05-11T08:59:40.814Z,17.27
2023-05-11T09:02:09.275Z,16.43
2023-05-11T09:04:37.658Z,17.10
2023-05-11T09:07:06.009Z,17.27
2023-05-11T09:09:34.389Z,17.53
2023-05-11T09:12:04.210Z,16.37
2023-05-11T09:14:33.192Z,16.20
2023-05-11T09:17:03.018Z,14.77
2023-05-11T09:19:31.460Z,14.17
2023-05-11T09:22:01.052Z,11.47
2023-05-11T09:24:29.406Z,13.37
2023-05-11T09:27:11.286Z,13.80
2023-05-11T09:29:39.666Z,15.40
2023-05-11T09:32:08.507Z,13.90
2023-05-11T09:34:43.184Z,15.13
2023-05-11T09:37:17.550Z,15.07
2023-05-11T09:40:14.001Z,14.70
2023-05-11T09:42:35.753Z,14.30
2023-05-11T09:45:04.165Z,12.87
2023-05-11T09:47:33.858Z,12.87
2023-05-11T09:50:02.295Z,12.47
2023-05-11T09:52:30.692Z,14.60
2023-05-11T09:54:59.046Z,15.30
2023-05-11T09:57:27.605Z,16.20
2023-05-11T09:59:57.675Z,16.40
2023-05-11T10:02:26.660Z,16.70
2023-05-11T10:04:55.429Z,15.47
2023-05-11T10:07:30.379Z,14.67
2023-05-11T10:09:59.055Z,15.63
2023-05-11T10:12:27.740Z,14.80
2023-05-11T10:14:58.390Z,14.20
2023-05-11T10:17:27.147Z,14.57
2023-05-11T10:19:56.880Z,13.33
2023-05-11T10:22:25.991Z,13.57
2023-05-11T10:24:54.437Z,12.57
2023-05-11T10:27:22.804Z,11.90
2023-05-11T10:29:51.574Z,12.30
2023-05-11T10:32:21.720Z,12.70
2023-05-11T10:34:51.915Z,12.10
2023-05-11T10:37:21.264Z,12.37
2023-05-11T10:39:50.641Z,13.80
2023-05-11T10:42:24.249Z,14.63
2023-05-11T10:45:02.665Z,15.53
2023-05-11T10:47:40.094Z,13.83
2023-05-11T10:50:26.967Z,14.50
2023-05-11T10:53:10.182Z,15.23
2023-05-11T10:55:46.210Z,14.53
2023-05-11T10:58:16.365Z,13.93
2023-05-11T11:01:02.871Z,15.20
2023-05-11T11:03:32.712Z,15.57
2023-05-11T11:06:01.186Z,15.27
2023-05-11T11:08:29.853Z,15.97
2023-05-11T11:10:58.938Z,13.93
2023-05-11T11:13:27.543Z,14.13
2023-05-11T11:16:14.528Z,13.27
2023-05-11T11:18:47.736Z,13.27
2023-05-11T11:21:16.109Z,13.87
2023-05-11T11:23:45.027Z,13.27
2023-05-11T11:26:15.493Z,12.70
2023-05-11T11:29:17.248Z,11.90
2023-05-11T11:31:45.785Z,11.30
2023-05-11T11:34:32.803Z,11.63
2023-05-11T11:37:06.189Z,12.00
2023-05-11T11:39:47.521Z,11.77
2023-05-11T11:42:16.422Z,11.13
2023-05-11T11:44:44.981Z,9.40
2023-05-11T11:47:13.765Z,9.40
2023-05-11T11:49:42.858Z,8.33
2023-05-11T11:52:14.438Z,8.37
2023-05-11T11:54:43.207Z,8.20
2023-05-11T11:57:30.215Z,8.03
2023-05-11T11:59:58.703Z,8.40
2023-05-11T12:02:27.599Z,8.13
2023-05-11T12:04:58.741Z,8.50
2023-05-11T12:07:28.640Z,7.63
2023-05-11T12:09:57.171Z,7.80
2023-05-11T12:12:25.721Z,7.40
2023-05-11T12:14:54.276Z,6.83
2023-05-11T12:17:28.106Z,7.03
2023-05-11T12:19:56.908Z,8.10
2023-05-11T12:22:25.722Z,8.40
2023-05-11T12:25:00.492Z,8.70
2023-05-11T12:27:29.138Z,9.27
2023-05-11T12:29:58.693Z,9.53
2023-05-11T12:32:28.068Z,10.17
2023-05-11T12:35:00.381Z,10.43
2023-05-11T12:37:28.835Z,11.27
2023-05-11T12:40:00.000Z,11.13
2023-05-11T12:42:33.922Z,9.80
2023-05-11T12:45:05.199Z,10.07
2023-05-11T12:47:34.227Z,10.43
2023-05-11T12:50:03.918Z,10.70
2023-05-11T12:52:34.248Z,11.07
2023-05-11T12:55:05.266Z,11.17
2023-05-11T12:57:42.257Z,12.13
2023-05-11T13:00:14.887Z,12.23
2023-05-11T13:02:50.346Z,12.30
2023-05-11T13:05:21.000Z,12.10
2023-05-11T13:08:00.608Z,11.50
2023-05-11T13:10:32.760Z,11.43
2023-05-11T13:13:02.017Z,10.60
2023-05-11T13:15:51.840Z,10.90
2023-05-11T13:18:24.534Z,12.03
2023-05-11T13:21:06.403Z,11.73
2023-05-11T13:23:35.406Z,10.87
2023-05-11T13:26:05.626Z,10.70
2023-05-11T13:28:37.624Z,11.33
2023-05-11T13:31:12.138Z,11.87
2023-05-11T13:33:41.081Z,11.73
2023-05-11T13:36:09.933Z,12.07
2023-05-11T13:38:38.839Z,12.40
2023-05-11T13:41:09.360Z,13.13
2023-05-11T13:43:38.038Z,14.73
2023-05-11T13:46:06.733Z,14.53
2023-05-11T13:48:35.067Z,16.17
2023-05-11T13:51:03.804Z,16.03
2023-05-11T13:53:32.454Z,14.90
2023-05-11T13:56:01.525Z,14.23
2023-05-11T13:58:31.336Z,11.30
2023-05-11T14:01:07.852Z,11.20
2023-05-11T14:03:36.976Z,12.23
2023-05-11T14:06:05.626Z,12.33
2023-05-11T14:08:34.128Z,10.17
2023-05-11T14:11:02.564Z,9.10
2023-05-11T14:13:32.257Z,11.70
2023-05-11T14:16:00.739Z,11.70
2023-05-11T14:18:29.229Z,13.13
2023-05-11T14:20:58.097Z,12.43
2023-05-11T14:23:28.352Z,11.80
2023-05-11T14:26:06.857Z,11.10
2023-05-11T14:28:52.239Z,9.00
2023-05-11T14:31:21.091Z,7.13
2023-05-11T14:33:49.609Z,7.87
2023-05-11T14:36:18.112Z,8.03
2023-05-11T14:38:47.325Z,6.97
2023-05-11T14:41:16.446Z,5.63
2023-05-11T14:43:49.329Z,6.10
2023-05-11T14:46:17.903Z,5.97
2023-05-11T14:48:46.629Z,6.13
2023-05-11T14:51:15.219Z,6.17
2023-05-11T14:53:47.589Z,5.60
2023-05-11T14:56:17.085Z,5.97
2023-05-11T14:58:47.279Z,6.40
2023-05-11T15:01:15.752Z,6.33
2023-05-11T15:03:44.338Z,6.17
2023-05-11T15:06:15.290Z,6.90
2023-05-11T15:08:43.816Z,7.20
2023-05-11T15:11:12.248Z,7.70
2023-05-11T15:13:40.780Z,7.37
2023-05-11T15:16:10.883Z,6.97
2023-05-11T15:18:41.473Z,6.63
2023-05-11T15:21:11.805Z,6.80
2023-05-11T15:23:41.409Z,6.50
2023-05-11T15:26:10.036Z,6.33
2023-05-11T15:28:38.463Z,6.10
2023-05-11T15:31:07.162Z,5.70
2023-05-11T15:33:36.970Z,5.80
2023-05-11T15:36:05.800Z,6.17
2023-05-11T15:38:34.170Z,5.53
2023-05-11T15:41:03.817Z,6.10
2023-05-11T15:43:32.688Z,5.63
2023-05-11T15:46:03.502Z,5.43
2023-05-11T15:48:32.379Z,5.63
2023-05-11T15:51:02.896Z,5.37
2023-05-11T15:53:33.971Z,5.50
2023-05-11T15:56:02.558Z,5.30
2023-05-11T15:58:31.193Z,5.53
2023-05-11T16:01:02.451Z,5.47
2023-05-11T16:03:30.927Z,6.07
2023-05-11T16:05:59.385Z,5.63
2023-05-11T16:08:29.392Z,6.33
2023-05-11T16:10:57.765Z,6.43
2023-05-11T16:13:26.150Z,6.17
2023-05-11T16:15:54.504Z,6.70
2023-05-11T16:18:50.570Z,6.50
2023-05-11T16:21:26.427Z,6.63
2023-05-11T16:24:00.751Z,6.73
2023-05-11T16:26:36.451Z,7.30
2023-05-11T16:29:06.153Z,7.13
2023-05-11T16:31:34.588Z,6.67
2023-05-11T16:34:03.371Z,5.50
2023-05-11T16:36:39.125Z,5.63
2023-05-11T16:39:09.520Z,5.50
2023-05-11T16:41:38.372Z,5.67
2023-05-11T16:44:09.955Z,5.43
2023-05-11T16:46:39.359Z,6.13
2023-05-11T16:49:08.176Z,5.80
2023-05-11T16:51:36.647Z,5.13
2023-05-11T16:54:05.857Z,5.47
2023-05-11T16:56:36.802Z,4.80
2023-05-11T16:59:11.233Z,5.40
2023-05-11T17:01:39.819Z,5.40
2023-05-11T17:04:08.287Z,5.00
2023-05-11T17:06:37.889Z,5.17
2023-05-11T17:09:06.286Z,4.50
2023-05-11T17:11:36.174Z,4.37
2023-05-11T17:14:04.816Z,4.77
2023-05-11T17:16:33.554Z,4.50
2023-05-11T17:19:02.601Z,3.97
2023-05-11T17:21:30.941Z,4.47
2023-05-11T17:23:59.420Z,3.83
2023-05-11T17:26:39.153Z,3.70
2023-05-11T17:29:17.194Z,3.73
2023-05-11T17:31:48.762Z,3.70
2023-05-11T17:34:17.785Z,3.90
2023-05-11T17:36:46.380Z,4.30
2023-05-11T17:39:16.117Z,4.23
2023-05-11T17:41:44.707Z,4.90
2023-05-11T17:44:13.487Z,6.00
2023-05-11T17:46:43.568Z,5.80
2023-05-11T17:49:16.796Z,6.60
2023-05-11T17:51:45.840Z,6.13
2023-05-11T17:54:14.311Z,7.30
2023-05-11T17:56:42.681Z,6.60
2023-05-11T17:59:11.119Z,6.93
2023-05-11T18:01:39.579Z,7.53
2023-05-11T18:04:09.488Z,8.00
2023-05-11T18:06:37.904Z,8.00
2023-05-11T18:09:06.498Z,7.67
2023-05-11T18:11:35.022Z,8.30
2023-05-11T18:14:03.934Z,8.10
2023-05-11T18:16:34.268Z,8.37
2023-05-11T18:19:02.920Z,8.53
2023-05-11T18:21:36.336Z,8.23
2023-05-11T18:24:06.265Z,8.57
2023-05-11T18:26:34.787Z,9.03
2023-05-11T18:29:03.320Z,8.87
2023-05-11T18:31:31.969Z,8.77
2023-05-11T18:34:01.059Z,9.40
2023-05-11T18:36:30.021Z,8.60
2023-05-11T18:38:59.843Z,8.47
2023-05-11T18:41:28.521Z,8.83
2023-05-11T18:43:57.101Z,8.77
2023-05-11T18:46:25.757Z,8.23
2023-05-11T18:48:54.457Z,9.00
2023-05-11T18:51:23.373Z,8.30
2023-05-11T18:53:51.755Z,8.27
2023-05-11T18:56:24.902Z,8.57
2023-05-11T18:58:53.377Z,8.10
2023-05-11T19:01:25.846Z,8.00
2023-05-11T19:03:58.759Z,8.33
2023-05-11T19:06:27.190Z,8.30
2023-05-11T19:08:55.827Z,8.00
2023-05-11T19:11:25.608Z,8.53
2023-05-11T19:13:54.048Z,9.20
2023-05-11T19:16:23.016Z,9.03
2023-05-11T19:18:51.845Z,8.77
2023-05-11T19:21:20.974Z,9.60
2023-05-11T19:23:49.374Z,9.13
2023-05-11T19:26:17.905Z,8.40
2023-05-11T19:28:47.744Z,9.07
2023-05-11T19:31:16.194Z,9.23
2023-05-11T19:33:44.566Z,8.47
2023-05-11T19:36:12.956Z,8.20
2023-05-11T19:38:41.338Z,8.20
2023-05-11T19:41:09.734Z,7.90
2023-05-11T19:43:38.566Z,8.13
2023-05-11T19:46:08.725Z,7.93
2023-05-11T19:48:38.316Z,7.90
2023-05-11T19:51:06.669Z,7.93
2023-05-11T19:53:35.068Z,7.83
2023-05-11T19:56:03.626Z,7.67
2023-05-11T19:58:32.082Z,8.57
2023-05-11T20:01:01.098Z,9.13
2023-05-11T20:03:31.439Z,8.53
2023-05-11T20:05:59.944Z,9.83
2023-05-11T20:08:28.293Z,10.97
2023-05-11T20:10:57.070Z,10.97
2023-05-11T20:13:25.606Z,11.87
2023-05-11T20:15:54.227Z,12.43
2023-05-11T20:18:22.832Z,11.73
2023-05-11T20:20:52.709Z,12.83
2023-05-11T20:23:21.305Z,12.30
2023-05-11T20:25:50.375Z,12.10
2023-05-11T20:28:20.984Z,12.43
2023-05-11T20:30:49.415Z,12.17
2023-05-11T20:35:50.343Z,12.30
2023-05-11T20:38:21.210Z,12.30
2023-05-11T20:40:49.601Z,12.80
2023-05-11T20:43:18.096Z,12.33
2023-05-11T20:45:46.925Z,13.20
2023-05-11T20:48:16.175Z,11.90
2023-05-11T20:50:50.893Z,12.47
2023-05-11T20:53:21.078Z,12.43
2023-05-11T20:55:51.046Z,13.07
2023-05-11T20:58:19.551Z,12.50
2023-05-11T21:00:47.936Z,13.07
2023-05-11T21:03:16.458Z,13.93
2023-05-11T21:05:44.924Z,13.73
2023-05-11T21:08:15.050Z,15.47
2023-05-11T21:10:44.883Z,13.87
2023-05-11T21:13:13.891Z,14.73
2023-05-11T21:15:42.255Z,14.63
2023-05-11T21:18:10.658Z,15.27
2023-05-11T21:20:39.309Z,14.73
2023-05-11T21:23:08.384Z,14.80
2023-05-11T21:25:36.895Z,14.20
2023-05-11T21:28:06.991Z,16.83
2023-05-11T21:30:35.408Z,16.80
2023-05-11T21:33:04.053Z,18.23
2023-05-11T21:35:32.552Z,15.23
2023-05-11T21:38:01.103Z,15.33
2023-05-11T21:40:29.460Z,15.40
2023-05-11T21:42:57.874Z,15.13
2023-05-11T21:45:27.889Z,14.30
2023-05-11T21:47:58.750Z,14.60
2023-05-11T21:50:27.340Z,14.07
2023-05-11T21:52:55.825Z,14.00
2023-05-11T21:55:24.434Z,13.63
2023-05-11T21:57:53.462Z,14.40
2023-05-11T22:00:22.879Z,14.27
2023-05-11T22:02:52.790Z,14.67
2023-05-11T22:05:21.487Z,14.33
2023-05-11T22:07:52.409Z,14.80
2023-05-11T22:10:23.980Z,14.30
2023-05-11T22:12:52.403Z,13.87
2023-05-11T22:15:22.651Z,14.43
2023-05-11T22:17:51.401Z,14.27
2023-05-11T22:20:21.415Z,13.33
2023-05-11T22:22:49.948Z,14.47
2023-05-11T22:25:18.462Z,13.10
2023-05-11T22:27:46.889Z,13.07
2023-05-11T22:30:15.400Z,12.60
2023-05-11T22:32:43.848Z,13.03
2023-05-11T22:35:12.486Z,11.63
2023-05-11T22:37:42.754Z,11.20
2023-05-11T22:40:11.934Z,11.50
2023-05-11T22:42:40.439Z,10.93
2023-05-11T22:45:09.588Z,10.47
2023-05-11T22:47:38.006Z,10.27
2023-05-11T22:50:09.306Z,9.90
2023-05-11T22:52:38.192Z,9.00
2023-05-11T22:55:09.000Z,9.10
2023-05-11T22:57:37.398Z,9.43
2023-05-11T23:00:06.183Z,9.23
2023-05-11T23:02:35.994Z,9.17
2023-05-11T23:05:04.551Z,9.20
2023-05-11T23:07:33.134Z,9.13
2023-05-11T23:10:01.819Z,8.57
2023-05-11T23:12:31.543Z,8.87
2023-05-11T23:15:00.045Z,8.93
2023-05-11T23:17:28.545Z,8.67
2023-05-11T23:19:57.465Z,8.80
2023-05-11T23:22:26.149Z,9.10
2023-05-11T23:24:56.897Z,9.30
2023-05-11T23:27:25.734Z,9.40
2023-05-11T23:29:55.483Z,8.70
2023-05-11T23:32:24.284Z,8.77
2023-05-11T23:34:52.967Z,9.10
2023-05-11T23:37:22.274Z,8.77
2023-05-11T23:39:50.701Z,8.53
2023-05-11T23:42:19.552Z,8.90
2023-05-11T23:44:48.002Z,8.57
2023-05-11T23:47:17.711Z,8.53
2023-05-11T23:49:46.107Z,7.90
2023-05-11T23:52:14.449Z,8.97
2023-05-11T23:54:42.858Z,7.77
2023-05-11T23:57:11.361Z,8.17
2023-05-11T23:59:39.748Z,8.07
